Time;durP1;ratioP1;P1;durP2;ratioP2;P2;SDS_P1;SDS_P2;PMS_P1;PMS_P2;Temp;Humidity;BMP_temperature;BMP_pressure;BME280_temperature;BME280_humidity;BME280_pressure;Samples;Min_cycle;Max_cycle;Signal;HPM_P1;HPM_P2
2021/10/24 00:02:05;;;;;;;0.35;0.15;;;28.30;49.60;;;;;;5080970;28;20058;-70
2021/10/24 00:04:32;;;;;;;0.50;0.10;;;28.40;50.70;;;;;;5081067;28;20446;-73
2021/10/24 00:07:00;;;;;;;0.55;0.10;;;28.70;49.20;;;;;;5074292;28;20016;-70
2021/10/24 00:09:27;;;;;;;0.60;0.08;;;28.40;48.50;;;;;;5077398;28;20076;-76
2021/10/24 00:11:55;;;;;;;0.25;0.10;;;28.70;49.50;;;;;;5079150;28;20055;-72
2021/10/24 00:14:22;;;;;;;0.15;0.10;;;28.40;46.40;;;;;;5083569;28;20501;-70
2021/10/24 00:16:50;;;;;;;1.52;0.10;;;28.50;48.60;;;;;;5073844;28;20032;-70
2021/10/24 00:19:17;;;;;;;0.50;0.10;;;28.80;50.00;;;;;;5078223;28;20040;-69
2021/10/24 00:21:45;;;;;;;0.25;0.10;;;28.90;52.00;;;;;;5081996;28;20060;-70
2021/10/24 00:24:12;;;;;;;0.20;0.10;;;29.10;48.00;;;;;;5060737;28;20024;-71
2021/10/24 00:26:39;;;;;;;0.30;0.10;;;29.30;51.60;;;;;;5077343;28;20426;-69
2021/10/24 00:29:07;;;;;;;0.73;0.10;;;29.40;51.50;;;;;;5080685;28;20057;-70
2021/10/24 00:31:35;;;;;;;1.65;0.10;;;29.30;51.30;;;;;;5075314;28;20051;-69
2021/10/24 00:34:03;;;;;;;0.47;0.10;;;29.40;50.00;;;;;;5074139;28;20115;-69
2021/10/24 00:36:30;;;;;;;0.47;0.10;;;29.40;46.80;;;;;;5079639;28;20039;-73
2021/10/24 00:39:02;;;;;;;0.32;0.32;;;29.40;49.40;;;;;;5081067;28;20050;-73
2021/10/24 00:41:31;;;;;;;0.30;0.15;;;29.80;51.00;;;;;;5074858;28;20099;-70
2021/10/24 00:43:59;;;;;;;3.30;0.17;;;29.60;46.40;;;;;;5076178;28;20369;-70
2021/10/24 00:46:27;;;;;;;0.10;0.00;;;29.80;49.00;;;;;;5061777;28;20444;-71
2021/10/24 00:48:54;;;;;;;0.22;0.10;;;29.90;48.70;;;;;;5087169;28;20040;-72
2021/10/24 00:51:22;;;;;;;0.10;0.10;;;29.80;47.80;;;;;;5084138;28;20028;-71
2021/10/24 00:53:50;;;;;;;0.13;0.10;;;29.90;43.60;;;;;;5078937;28;20530;-71
2021/10/24 00:56:20;;;;;;;1.98;0.30;;;29.80;46.00;;;;;;5082334;28;20036;-70
2021/10/24 00:58:50;;;;;;;0.10;0.00;;;30.00;48.80;;;;;;5090440;28;20058;-71
2021/10/24 01:01:18;;;;;;;0.30;0.10;;;30.10;47.60;;;;;;5061431;28;20096;-71
2021/10/24 01:03:45;;;;;;;2.05;0.20;;;30.00;45.90;;;;;;5078058;28;20032;-71
2021/10/24 01:06:13;;;;;;;0.10;0.00;;;30.10;46.30;;;;;;5084531;28;20026;-70
2021/10/24 01:08:40;;;;;;;0.57;0.10;;;30.40;44.90;;;;;;5089346;28;20024;-70
2021/10/24 01:11:08;;;;;;;0.13;0.10;;;30.40;46.00;;;;;;5083024;28;20081;-70
2021/10/24 01:13:35;;;;;;;0.10;0.10;;;30.40;46.80;;;;;;5090604;28;20448;-70
2021/10/24 01:16:18;;;;;;;0.80;0.10;;;30.50;51.90;;;;;;5086953;28;20032;-71
2021/10/24 01:18:46;;;;;;;0.08;0.08;;;30.60;44.90;;;;;;5089777;28;20085;-72
2021/10/24 01:21:13;;;;;;;0.40;0.20;;;30.70;43.60;;;;;;5088655;28;20425;-72
2021/10/24 01:23:41;;;;;;;0.43;0.10;;;30.70;44.00;;;;;;5091560;28;20024;-70
2021/10/24 01:26:09;;;;;;;0.43;0.05;;;30.80;47.40;;;;;;5085797;28;20131;-70
2021/10/24 01:28:37;;;;;;;0.20;0.10;;;30.70;43.00;;;;;;5088532;28;20036;-70
2021/10/24 01:31:05;;;;;;;0.85;0.50;;;30.50;45.10;;;;;;5084258;28;20205;-70
2021/10/24 01:33:32;;;;;;;2.30;0.20;;;30.40;45.60;;;;;;5079659;28;20383;-71
2021/10/24 01:36:05;;;;;;;1.17;0.52;;;30.50;46.20;;;;;;5076059;28;20544;-71
2021/10/24 01:38:33;;;;;;;0.60;0.30;;;30.60;44.30;;;;;;5088451;28;20032;-69
2021/10/24 01:41:02;;;;;;;0.73;0.43;;;30.70;47.60;;;;;;5089119;28;20025;-69
2021/10/24 01:43:30;;;;;;;0.20;0.10;;;30.80;43.10;;;;;;5082960;28;20440;-68
2021/10/24 01:45:57;;;;;;;0.75;0.28;;;30.80;45.90;;;;;;5082244;28;20101;-70
2021/10/24 01:48:25;;;;;;;0.60;0.30;;;30.10;42.80;;;;;;5087804;28;20047;-70
2021/10/24 01:50:54;;;;;;;1.65;0.20;;;29.40;43.80;;;;;;5086009;28;20024;-69
2021/10/24 01:53:34;;;;;;;0.20;0.10;;;29.00;43.30;;;;;;5091056;28;20024;-69
2021/10/24 01:56:01;;;;;;;2.05;0.10;;;29.30;43.90;;;;;;5075512;28;20490;-72
2021/10/24 01:58:28;;;;;;;0.10;0.10;;;29.50;45.30;;;;;;5070904;28;20035;-69
2021/10/24 02:00:56;;;;;;;0.93;0.10;;;29.90;46.80;;;;;;5074656;28;20039;-70
2021/10/24 02:03:23;;;;;;;0.35;0.10;;;30.40;47.00;;;;;;5088837;28;20474;-69
2021/10/24 02:05:52;;;;;;;1.45;0.10;;;30.70;46.30;;;;;;5085683;28;20056;-71
2021/10/24 02:08:23;;;;;;;0.10;0.10;;;30.70;41.90;;;;;;5082709;28;20100;-70
2021/10/24 02:10:52;;;;;;;0.30;0.15;;;30.70;43.70;;;;;;5079956;28;20085;-69
2021/10/24 02:13:20;;;;;;;0.52;0.10;;;30.90;46.30;;;;;;5079034;28;20115;-69
2021/10/24 02:15:47;;;;;;;0.10;0.10;;;31.10;43.10;;;;;;5083798;28;20055;-72
2021/10/24 02:18:15;;;;;;;0.40;0.10;;;31.10;43.20;;;;;;5077775;28;20028;-70
2021/10/24 02:20:42;;;;;;;0.20;0.13;;;31.50;47.60;;;;;;5077230;28;20112;-70
2021/10/24 02:23:10;;;;;;;1.23;0.13;;;31.60;47.00;;;;;;5077498;28;20032;-74
2021/10/24 02:25:39;;;;;;;0.20;0.10;;;31.50;41.20;;;;;;5080866;28;20028;-76
2021/10/24 02:28:06;;;;;;;0.00;0.00;;;31.30;40.70;;;;;;5079657;28;20038;-72
2021/10/24 02:30:35;;;;;;;0.10;0.10;;;31.10;41.70;;;;;;5069202;28;20629;-71
2021/10/24 02:33:03;;;;;;;3.20;0.60;;;31.30;41.70;;;;;;5077827;28;20051;-71
2021/10/24 02:35:31;;;;;;;1.85;0.20;;;31.40;41.60;;;;;;5078964;28;20471;-71
2021/10/24 02:37:58;;;;;;;0.40;0.20;;;31.60;43.40;;;;;;5077500;28;20040;-76
2021/10/24 02:40:26;;;;;;;0.28;0.10;;;31.80;44.70;;;;;;5084806;28;20032;-72
2021/10/24 02:42:53;;;;;;;0.85;0.57;;;31.90;42.50;;;;;;5077385;28;20020;-70
2021/10/24 02:45:21;;;;;;;5.60;0.95;;;32.00;44.90;;;;;;5082333;28;20031;-73
2021/10/24 02:47:49;;;;;;;3.47;1.02;;;31.80;52.30;;;;;;5080127;28;20024;-70
2021/10/24 02:50:17;;;;;;;5.72;0.60;;;31.00;53.90;;;;;;5078549;28;20039;-70
2021/10/24 02:52:45;;;;;;;5.35;1.08;;;30.50;55.00;;;;;;5080538;28;20056;-72
2021/10/24 02:55:12;;;;;;;4.47;1.02;;;30.10;55.00;;;;;;5077155;28;20143;-70
2021/10/24 02:57:39;;;;;;;2.03;0.55;;;29.60;54.80;;;;;;5081842;28;20056;-70
2021/10/24 03:00:08;;;;;;;6.72;1.15;;;29.30;54.90;;;;;;5077007;28;20072;-74
2021/10/24 03:02:36;;;;;;;6.47;0.85;;;29.20;56.50;;;;;;5074955;28;20024;-69
2021/10/24 03:05:06;;;;;;;6.63;0.90;;;29.20;55.50;;;;;;5078686;28;20028;-71
2021/10/24 03:07:34;;;;;;;5.25;1.95;;;29.00;56.70;;;;;;5089373;28;20115;-68
2021/10/24 03:10:02;;;;;;;8.43;1.40;;;29.00;56.50;;;;;;5090724;28;20130;-68
2021/10/24 03:12:29;;;;;;;3.67;0.90;;;29.10;56.90;;;;;;5079983;28;20032;-71
2021/10/24 03:14:58;;;;;;;4.78;1.17;;;29.10;56.80;;;;;;5081681;28;20040;-68
2021/10/24 03:17:25;;;;;;;5.13;0.82;;;29.20;57.70;;;;;;5069591;28;20054;-68
2021/10/24 03:19:52;;;;;;;7.95;1.38;;;28.90;57.40;;;;;;5084946;28;20032;-71
2021/10/24 03:22:20;;;;;;;2.13;0.65;;;29.00;58.60;;;;;;5076381;28;20032;-71
2021/10/24 03:24:47;;;;;;;4.25;0.98;;;28.60;57.00;;;;;;5075924;28;20436;-71
2021/10/24 03:27:15;;;;;;;3.08;0.70;;;28.20;57.30;;;;;;5087420;28;20036;-71
2021/10/24 03:29:42;;;;;;;4.28;1.02;;;28.00;58.00;;;;;;5079883;28;20020;-72
2021/10/24 03:32:10;;;;;;;4.80;0.73;;;28.00;57.90;;;;;;5080675;28;20094;-74
2021/10/24 03:34:37;;;;;;;3.03;1.20;;;28.20;57.30;;;;;;5077695;28;20062;-72
2021/10/24 03:37:04;;;;;;;5.50;0.60;;;28.40;57.90;;;;;;5081371;28;20723;-74
2021/10/24 03:39:32;;;;;;;4.15;0.82;;;28.40;58.40;;;;;;5078468;28;20020;-74
2021/10/24 03:41:59;;;;;;;5.57;1.15;;;28.30;58.30;;;;;;5079726;28;20025;-72
2021/10/24 03:44:27;;;;;;;4.28;0.95;;;28.40;58.60;;;;;;5075074;28;20052;-70
2021/10/24 03:46:54;;;;;;;5.20;0.90;;;28.40;59.80;;;;;;5083720;28;20028;-73
2021/10/24 03:49:22;;;;;;;4.72;0.70;;;28.20;59.60;;;;;;5077901;28;20058;-71
2021/10/24 03:51:49;;;;;;;5.68;0.68;;;28.00;58.80;;;;;;5065540;28;20047;-71
2021/10/24 03:54:16;;;;;;;3.42;0.95;;;28.10;59.20;;;;;;5072401;28;20035;-70
2021/10/24 03:56:44;;;;;;;6.32;1.77;;;28.30;57.40;;;;;;5074096;28;20054;-72
2021/10/24 03:59:11;;;;;;;7.15;1.73;;;28.50;57.30;;;;;;5065184;28;20024;-75
2021/10/24 04:01:39;;;;;;;4.28;1.00;;;28.40;58.40;;;;;;5068264;28;20029;-74
2021/10/24 04:04:06;;;;;;;2.55;0.60;;;28.00;59.10;;;;;;5066791;28;20029;-72
2021/10/24 04:06:34;;;;;;;11.77;1.08;;;28.00;58.90;;;;;;5064118;28;20031;-75
2021/10/24 04:09:01;;;;;;;4.32;0.65;;;27.90;58.80;;;;;;5065506;28;20031;-73
2021/10/24 04:11:30;;;;;;;2.90;0.70;;;27.80;58.30;;;;;;5065989;28;20361;-71
2021/10/24 04:13:57;;;;;;;3.88;0.70;;;27.70;59.80;;;;;;5060760;28;20090;-72
2021/10/24 04:16:24;;;;;;;5.85;1.23;;;27.70;60.10;;;;;;5068049;28;20139;-73
2021/10/24 04:18:52;;;;;;;3.60;0.80;;;27.60;59.70;;;;;;5062443;28;20101;-73
2021/10/24 04:21:21;;;;;;;8.90;0.98;;;27.30;59.60;;;;;;5056849;28;20043;-70
2021/10/24 04:23:48;;;;;;;5.40;1.20;;;26.80;60.40;;;;;;5084406;28;20028;-74
2021/10/24 04:26:16;;;;;;;3.72;1.00;;;26.40;62.50;;;;;;5051601;28;20036;-71
2021/10/24 04:28:43;;;;;;;3.90;1.13;;;26.20;61.90;;;;;;5065087;28;20190;-73
2021/10/24 04:31:11;;;;;;;9.18;2.03;;;26.30;62.60;;;;;;5064224;28;20020;-75
2021/10/24 04:33:39;;;;;;;12.20;1.13;;;26.20;63.60;;;;;;5063085;28;20031;-74
2021/10/24 04:36:06;;;;;;;3.35;1.10;;;26.20;63.80;;;;;;5064251;28;20028;-71
2021/10/24 04:38:35;;;;;;;5.85;0.88;;;26.50;63.80;;;;;;5063328;28;20025;-72
2021/10/24 04:41:04;;;;;;;2.50;0.90;;;26.70;63.80;;;;;;5065073;28;20035;-74
2021/10/24 04:43:31;;;;;;;5.80;1.98;;;26.60;63.90;;;;;;5065068;28;20035;-73
2021/10/24 04:45:59;;;;;;;6.40;0.90;;;26.60;64.20;;;;;;5066900;28;20371;-72
2021/10/24 04:48:26;;;;;;;3.20;0.63;;;26.30;64.30;;;;;;5064510;28;20376;-74
2021/10/24 04:50:53;;;;;;;4.70;1.35;;;26.00;64.50;;;;;;5078566;28;20107;-75
2021/10/24 04:53:23;;;;;;;7.15;1.30;;;25.80;64.90;;;;;;5076259;28;20016;-73
2021/10/24 04:55:51;;;;;;;6.93;1.02;;;25.80;64.90;;;;;;5086866;28;20028;-75
2021/10/24 04:58:18;;;;;;;4.47;0.90;;;25.90;65.60;;;;;;5089461;28;20082;-76
2021/10/24 05:00:46;;;;;;;3.58;0.73;;;25.60;65.40;;;;;;5072968;28;20020;-72
2021/10/24 05:03:13;;;;;;;3.17;0.60;;;25.40;66.10;;;;;;5078752;28;20410;-74
2021/10/24 05:05:41;;;;;;;4.13;0.95;;;25.20;66.70;;;;;;5078351;28;20024;-72
2021/10/24 05:08:08;;;;;;;7.10;1.25;;;25.10;66.90;;;;;;5077610;28;20027;-74
2021/10/24 05:10:36;;;;;;;8.07;1.10;;;25.20;67.50;;;;;;5071533;28;20926;-72
2021/10/24 05:13:03;;;;;;;3.25;1.40;;;25.30;67.60;;;;;;5063385;28;20028;-76
2021/10/24 05:15:31;;;;;;;4.85;1.02;;;25.40;67.30;;;;;;5073137;28;20064;-74
2021/10/24 05:17:58;;;;;;;4.15;0.50;;;25.50;66.70;;;;;;5077125;28;20026;-73
2021/10/24 05:20:26;;;;;;;4.28;1.10;;;25.30;66.20;;;;;;5074496;28;20046;-74
2021/10/24 05:22:53;;;;;;;6.78;1.00;;;25.20;67.30;;;;;;5078873;28;20065;-74
2021/10/24 05:25:20;;;;;;;5.75;1.17;;;25.10;67.10;;;;;;5078507;28;20032;-72
2021/10/24 05:27:53;;;;;;;10.85;1.70;;;25.10;67.50;;;;;;5081410;28;20055;-74
2021/10/24 05:30:21;;;;;;;5.20;1.02;;;25.00;67.70;;;;;;5075669;28;20028;-73
2021/10/24 05:32:49;;;;;;;4.97;1.25;;;24.80;68.10;;;;;;5076581;28;20061;-71
2021/10/24 05:35:17;;;;;;;5.45;0.70;;;24.70;67.20;;;;;;5073638;28;20032;-75
2021/10/24 05:37:44;;;;;;;4.15;0.80;;;24.60;68.20;;;;;;5079008;28;20046;-74
2021/10/24 05:40:13;;;;;;;5.80;0.90;;;24.30;68.70;;;;;;5077369;28;20024;-72
2021/10/24 05:42:41;;;;;;;4.95;1.00;;;24.30;69.00;;;;;;5077243;28;20039;-72
2021/10/24 05:45:09;;;;;;;4.63;1.10;;;24.30;69.00;;;;;;5079124;28;20027;-71
2021/10/24 05:47:36;;;;;;;3.08;1.02;;;24.30;69.50;;;;;;5082309;28;20028;-73
2021/10/24 05:50:04;;;;;;;5.75;1.20;;;24.20;69.20;;;;;;5079498;28;20031;-72
2021/10/24 05:52:32;;;;;;;2.92;0.45;;;24.20;69.20;;;;;;5089631;28;20036;-71
2021/10/24 05:54:59;;;;;;;3.45;0.70;;;23.90;69.10;;;;;;5086895;28;20333;-71
2021/10/24 05:57:26;;;;;;;1.35;1.05;;;23.60;70.60;;;;;;5082758;28;20442;-74
2021/10/24 05:59:54;;;;;;;2.05;0.60;;;23.60;70.80;;;;;;5083265;28;20028;-71
2021/10/24 06:02:24;;;;;;;1.80;0.80;;;23.50;71.20;;;;;;5088349;28;20040;-74
2021/10/24 06:04:51;;;;;;;4.15;0.98;;;23.20;71.20;;;;;;5090907;28;20042;-76
2021/10/24 06:07:19;;;;;;;5.00;1.27;;;23.20;71.50;;;;;;5075464;28;20364;-74
2021/10/24 06:12:42;;;;;;;5.88;1.30;;;23.40;71.10;;;;;;5079054;28;20017;-72
2021/10/24 06:15:11;;;;;;;2.33;0.63;;;23.20;71.50;;;;;;5081670;28;20063;-72
2021/10/24 06:17:39;;;;;;;1.40;0.60;;;23.10;72.00;;;;;;5080993;28;20021;-74
2021/10/24 06:20:08;;;;;;;2.33;0.57;;;22.90;72.20;;;;;;5091998;28;20028;-71
2021/10/24 06:22:35;;;;;;;3.63;0.60;;;22.60;72.60;;;;;;5081524;28;20391;-74
2021/10/24 06:25:04;;;;;;;3.30;0.85;;;22.70;73.40;;;;;;5089159;28;20427;-72
2021/10/24 06:27:32;;;;;;;4.53;0.80;;;22.60;73.30;;;;;;5089379;28;20020;-71
2021/10/24 06:29:59;;;;;;;3.67;2.00;;;22.50;73.50;;;;;;5080228;28;20060;-69
2021/10/24 06:32:29;;;;;;;3.60;1.13;;;22.50;74.10;;;;;;5081985;28;20052;-71
2021/10/24 06:34:57;;;;;;;5.28;1.85;;;22.30;74.30;;;;;;5079183;28;20840;-72
2021/10/24 06:37:26;;;;;;;7.97;1.88;;;22.30;74.30;;;;;;5079485;28;20479;-71
2021/10/24 06:39:54;;;;;;;2.70;0.80;;;22.20;74.70;;;;;;5077541;28;20028;-71
2021/10/24 06:42:21;;;;;;;4.55;0.80;;;22.20;74.30;;;;;;5076970;28;20021;-72
2021/10/24 06:44:49;;;;;;;3.33;1.15;;;22.10;74.30;;;;;;5080294;28;20110;-73
2021/10/24 06:47:16;;;;;;;3.85;1.10;;;22.20;74.70;;;;;;5075944;28;20482;-72
2021/10/24 06:49:44;;;;;;;3.50;0.93;;;22.30;74.20;;;;;;5077667;28;20502;-72
2021/10/24 06:52:11;;;;;;;2.92;0.95;;;22.30;73.70;;;;;;5077472;28;20438;-72
2021/10/24 06:54:38;;;;;;;2.92;1.02;;;22.00;74.20;;;;;;5083449;28;20069;-73
2021/10/24 06:57:06;;;;;;;2.85;0.90;;;21.70;74.70;;;;;;5083015;28;20050;-69
2021/10/24 06:59:33;;;;;;;4.20;1.05;;;21.60;75.00;;;;;;5090210;28;20033;-72
2021/10/24 07:02:01;;;;;;;5.22;0.88;;;21.50;75.80;;;;;;5090002;28;20368;-72
2021/10/24 07:04:28;;;;;;;2.38;1.00;;;21.40;75.70;;;;;;5091688;28;20039;-72
2021/10/24 07:06:55;;;;;;;2.60;0.90;;;21.30;75.90;;;;;;5088164;28;20032;-72
2021/10/24 07:09:23;;;;;;;5.07;1.08;;;21.20;76.50;;;;;;5079418;28;20162;-71
2021/10/24 07:11:50;;;;;;;2.67;0.70;;;21.00;76.80;;;;;;5084595;28;20386;-70
2021/10/24 07:14:17;;;;;;;2.80;0.90;;;20.90;77.20;;;;;;5078325;28;20473;-70
2021/10/24 07:16:45;;;;;;;4.25;0.80;;;21.00;77.20;;;;;;5080234;28;20028;-69
2021/10/24 07:19:12;;;;;;;4.50;1.30;;;20.90;77.10;;;;;;5082534;28;20126;-73
2021/10/24 07:21:40;;;;;;;3.45;1.73;;;20.90;77.40;;;;;;5085765;28;20028;-73
2021/10/24 07:24:08;;;;;;;2.83;0.60;;;21.00;77.60;;;;;;5073198;28;20127;-70
2021/10/24 07:26:35;;;;;;;4.22;1.05;;;21.00;77.50;;;;;;5088923;28;20028;-70
2021/10/24 07:29:03;;;;;;;1.95;0.80;;;20.80;77.10;;;;;;5088524;28;20031;-70
2021/10/24 07:31:30;;;;;;;2.67;0.40;;;20.80;77.60;;;;;;5090230;28;20116;-71
2021/10/24 07:33:57;;;;;;;5.35;1.52;;;20.70;77.90;;;;;;5088825;28;20483;-70
2021/10/24 07:36:25;;;;;;;4.25;0.80;;;20.60;78.00;;;;;;5065362;28;20393;-70
2021/10/24 07:38:52;;;;;;;3.33;0.98;;;20.60;78.30;;;;;;5093296;28;20528;-68
2021/10/24 07:41:19;;;;;;;3.40;0.90;;;20.50;78.80;;;;;;5075419;28;20089;-69
2021/10/24 07:43:47;;;;;;;5.25;2.13;;;20.50;78.90;;;;;;5084830;28;20024;-69
2021/10/24 07:46:14;;;;;;;4.18;1.00;;;20.40;79.40;;;;;;5087296;28;20024;-70
2021/10/24 07:48:42;;;;;;;4.28;1.13;;;20.40;79.50;;;;;;5090853;28;20349;-69
2021/10/24 07:51:09;;;;;;;2.28;0.60;;;20.50;79.70;;;;;;5083928;28;20020;-69
2021/10/24 07:53:37;;;;;;;2.33;0.60;;;20.40;79.70;;;;;;5093245;28;20027;-69
2021/10/24 07:56:04;;;;;;;3.83;0.98;;;20.40;79.80;;;;;;5087770;28;20475;-70
2021/10/24 07:58:33;;;;;;;2.38;0.68;;;20.40;79.70;;;;;;5080226;28;20024;-72
2021/10/24 08:01:01;;;;;;;5.60;1.25;;;20.40;80.30;;;;;;5082074;28;20030;-70
2021/10/24 08:03:28;;;;;;;7.05;0.77;;;20.30;82.10;;;;;;5091219;28;20127;-69
2021/10/24 08:05:57;;;;;;;3.58;0.90;;;20.20;83.00;;;;;;5081809;28;20032;-69
2021/10/24 08:08:24;;;;;;;1.85;0.60;;;20.20;84.90;;;;;;5088903;28;20042;-71
2021/10/24 08:10:51;;;;;;;3.50;0.82;;;20.10;87.80;;;;;;5088675;28;20024;-70
2021/10/24 08:13:19;;;;;;;1.75;1.17;;;19.90;90.10;;;;;;5089900;28;20535;-71
2021/10/24 08:15:48;;;;;;;4.22;1.15;;;19.60;91.80;;;;;;5075643;28;20051;-71
2021/10/24 08:18:16;;;;;;;5.45;0.80;;;19.30;93.00;;;;;;5080272;28;20024;-71
2021/10/24 08:20:45;;;;;;;4.55;0.80;;;19.10;94.70;;;;;;5081274;28;20112;-70
2021/10/24 08:23:15;;;;;;;2.53;0.57;;;18.90;96.70;;;;;;5084298;28;20099;-72
2021/10/24 08:25:42;;;;;;;4.30;1.05;;;18.80;98.20;;;;;;5085429;28;20046;-70
2021/10/24 08:28:10;;;;;;;6.30;0.88;;;19.00;98.80;;;;;;5088780;28;20028;-73
2021/10/24 08:30:38;;;;;;;7.95;1.35;;;19.00;99.10;;;;;;5081083;28;20477;-70
2021/10/24 08:33:06;;;;;;;3.30;0.90;;;19.10;99.80;;;;;;5089223;28;20043;-71
2021/10/24 08:35:33;;;;;;;4.85;0.80;;;19.00;99.90;;;;;;5087582;28;20097;-71
2021/10/24 08:38:01;;;;;;;1.92;0.60;;;18.90;99.90;;;;;;5083940;28;20483;-70
2021/10/24 08:40:29;;;;;;;5.15;1.33;;;18.80;99.90;;;;;;5083345;28;20035;-70
2021/10/24 08:43:03;;;;;;;3.33;0.80;;;18.90;99.90;;;;;;5082767;28;20024;-72
2021/10/24 08:45:31;;;;;;;4.15;0.50;;;18.90;99.90;;;;;;5078133;28;20028;-69
2021/10/24 08:47:59;;;;;;;2.38;1.30;;;19.00;99.80;;;;;;5091018;28;20047;-70
2021/10/24 08:50:26;;;;;;;4.72;1.10;;;19.00;99.60;;;;;;5075377;28;20035;-69
2021/10/24 08:52:55;;;;;;;1.48;0.50;;;19.10;99.10;;;;;;5086650;28;20016;-71
2021/10/24 08:55:23;;;;;;;1.60;0.70;;;19.20;98.90;;;;;;5075267;28;20039;-72
2021/10/24 08:57:50;;;;;;;6.45;1.48;;;19.30;99.10;;;;;;5079812;28;20418;-71
2021/10/24 09:00:18;;;;;;;1.77;0.85;;;19.40;99.20;;;;;;5082424;28;20541;-70
2021/10/24 09:03:04;;;;;;;2.97;0.63;;;19.40;98.60;;;;;;5085007;28;20044;-69
2021/10/24 09:05:42;;;;;;;3.20;0.70;;;19.40;99.00;;;;;;5082687;28;20440;-71
2021/10/24 09:08:15;;;;;;;3.42;0.52;;;19.30;99.50;;;;;;5071865;28;20032;-76
2021/10/24 09:10:51;;;;;;;4.45;0.70;;;19.20;99.90;;;;;;5075245;28;20443;-72
2021/10/24 09:13:28;;;;;;;5.93;0.93;;;19.00;99.90;;;;;;5077871;28;20028;-72
2021/10/24 09:16:01;;;;;;;5.15;0.82;;;18.90;99.90;;;;;;5078661;28;20147;-76
2021/10/24 09:18:37;;;;;;;4.18;1.05;;;18.80;99.90;;;;;;5059328;28;20078;-70
2021/10/24 09:21:17;;;;;;;2.40;0.70;;;18.70;99.90;;;;;;5075066;28;20041;-71
2021/10/24 09:24:12;;;;;;;5.38;0.80;;;18.50;99.90;;;;;;5079437;28;20032;-71
2021/10/24 09:26:43;;;;;;;2.10;0.70;;;18.40;99.60;;;;;;5081498;28;20035;-71
2021/10/24 09:29:16;;;;;;;4.63;0.73;;;18.30;99.90;;;;;;5060753;28;20032;-72
2021/10/24 09:31:52;;;;;;;2.70;0.60;;;18.00;99.90;;;;;;5078075;28;20067;-72
2021/10/24 09:34:21;;;;;;;2.88;1.05;;;17.90;99.90;;;;;;5076681;28;20385;-71
2021/10/24 09:37:08;;;;;;;3.05;0.68;;;17.80;99.90;;;;;;5075041;28;20546;-70
2021/10/24 09:39:37;;;;;;;2.30;1.17;;;17.60;99.90;;;;;;5075281;28;20024;-74
2021/10/24 09:42:28;;;;;;;5.68;1.38;;;17.60;99.90;;;;;;5076538;28;20449;-73
2021/10/24 09:45:12;;;;;;;7.47;1.45;;;17.60;99.90;;;;;;5078119;28;20070;-72
2021/10/24 09:47:41;;;;;;;1.88;1.08;;;17.50;99.90;;;;;;5075965;28;20024;-72
2021/10/24 09:50:32;;;;;;;2.85;0.47;;;17.40;99.90;;;;;;5074902;28;20036;-74
2021/10/24 09:53:17;;;;;;;3.63;0.70;;;17.20;99.90;;;;;;5075201;28;20390;-72
2021/10/24 09:55:48;;;;;;;4.07;0.60;;;17.20;99.90;;;;;;5077214;28;20116;-73
2021/10/24 09:58:16;;;;;;;4.68;1.25;;;17.10;99.90;;;;;;5079071;28;20774;-73
2021/10/24 10:00:44;;;;;;;3.03;0.63;;;16.90;99.90;;;;;;5079404;28;20498;-71
2021/10/24 10:03:12;;;;;;;1.85;0.50;;;16.80;99.90;;;;;;5075924;28;20016;-72
2021/10/24 10:05:42;;;;;;;3.03;0.90;;;16.70;99.90;;;;;;5074002;28;20028;-72
2021/10/24 10:08:11;;;;;;;4.22;0.85;;;16.70;99.90;;;;;;5076578;28;20062;-74
2021/10/24 10:10:49;;;;;;;4.20;0.63;;;16.60;99.90;;;;;;5078993;28;20024;-75
2021/10/24 10:13:22;;;;;;;4.43;0.80;;;16.70;99.90;;;;;;5085875;28;20024;-74
2021/10/24 10:15:50;;;;;;;3.38;0.70;;;16.70;99.90;;;;;;5082251;28;20032;-74
2021/10/24 10:18:22;;;;;;;4.75;0.82;;;16.70;99.90;;;;;;5075065;28;20024;-72
2021/10/24 10:20:52;;;;;;;6.05;0.90;;;16.60;99.90;;;;;;5077332;28;20552;-73
2021/10/24 10:23:37;;;;;;;4.50;1.25;;;16.60;99.90;;;;;;5080535;28;20443;-73
2021/10/24 10:26:31;;;;;;;4.88;0.70;;;16.60;99.90;;;;;;5077366;28;20019;-72
2021/10/24 10:28:59;;;;;;;2.22;0.47;;;16.60;99.90;;;;;;5045897;28;20101;-72
2021/10/24 10:31:26;;;;;;;1.73;0.50;;;16.60;99.90;;;;;;5074004;28;20067;-71
2021/10/24 10:34:02;;;;;;;3.03;1.15;;;16.60;99.90;;;;;;5079265;28;20028;-71
2021/10/24 10:36:47;;;;;;;3.33;0.98;;;16.60;99.90;;;;;;5078469;28;20035;-71
2021/10/24 10:39:36;;;;;;;2.17;0.65;;;16.60;99.90;;;;;;5074747;28;20082;-71
2021/10/24 10:42:27;;;;;;;3.10;1.05;;;16.70;99.90;;;;;;5076901;28;20023;-72
2021/10/24 10:45:16;;;;;;;2.25;0.65;;;16.70;99.90;;;;;;5080712;28;20032;-71
2021/10/24 10:47:54;;;;;;;2.17;0.40;;;16.70;99.90;;;;;;5087053;28;20036;-73
2021/10/24 10:50:31;;;;;;;1.98;0.65;;;16.60;99.90;;;;;;5083718;28;20678;-71
2021/10/24 10:53:25;;;;;;;6.70;2.45;;;16.50;99.90;;;;;;5082768;28;20021;-71
2021/10/24 10:56:01;;;;;;;1.45;0.47;;;16.40;99.90;;;;;;5059422;28;20052;-71
2021/10/24 10:58:41;;;;;;;4.18;0.95;;;16.40;99.90;;;;;;5074945;28;20016;-71
2021/10/24 11:01:28;;;;;;;4.18;0.50;;;16.40;99.90;;;;;;5089315;28;20107;-72
2021/10/24 11:04:08;;;;;;;2.88;0.88;;;16.40;99.90;;;;;;5092278;28;20106;-69
2021/10/24 11:06:39;;;;;;;5.78;1.00;;;16.40;99.90;;;;;;5088558;28;20077;-71
2021/10/24 11:09:07;;;;;;;4.68;0.70;;;16.40;99.90;;;;;;5081159;28;20025;-69
2021/10/24 11:11:39;;;;;;;4.80;0.85;;;16.40;99.90;;;;;;5078801;28;20386;-70
2021/10/24 11:14:18;;;;;;;2.08;0.70;;;16.40;99.90;;;;;;5083647;28;20075;-72
2021/10/24 11:16:49;;;;;;;2.22;0.60;;;16.50;99.90;;;;;;5087106;28;20509;-69
2021/10/24 11:19:29;;;;;;;1.77;0.57;;;16.50;99.90;;;;;;5082812;28;20032;-71
2021/10/24 11:22:11;;;;;;;4.97;0.90;;;16.50;99.90;;;;;;5081640;28;20044;-70
2021/10/24 11:24:41;;;;;;;2.53;1.30;;;16.50;99.90;;;;;;5082829;28;20475;-70
2021/10/24 11:27:15;;;;;;;1.20;0.40;;;16.50;99.90;;;;;;5079101;28;20078;-71
2021/10/24 11:30:07;;;;;;;5.82;0.95;;;16.50;99.90;;;;;;5081744;28;20058;-70
2021/10/24 11:32:40;;;;;;;1.65;0.40;;;16.50;99.90;;;;;;5083360;28;20044;-70
2021/10/24 11:35:13;;;;;;;0.65;0.32;;;16.40;99.90;;;;;;5082176;28;20857;-70
2021/10/24 11:37:51;;;;;;;4.20;0.63;;;16.30;99.90;;;;;;5082019;28;22865;-68
2021/10/24 11:40:23;;;;;;;3.42;0.50;;;16.30;99.90;;;;;;5080748;28;20040;-72
2021/10/24 11:43:18;;;;;;;2.05;0.68;;;16.20;99.90;;;;;;5082241;28;20054;-71
2021/10/24 11:45:46;;;;;;;3.55;0.50;;;16.10;99.90;;;;;;5082144;28;20555;-70
2021/10/24 11:48:22;;;;;;;2.20;0.55;;;16.00;99.90;;;;;;5083067;28;20027;-69
2021/10/24 11:51:00;;;;;;;1.55;0.60;;;16.00;99.90;;;;;;5090942;28;20418;-70
2021/10/24 11:53:40;;;;;;;1.95;1.02;;;15.90;99.90;;;;;;5089749;28;20030;-69
2021/10/24 11:56:11;;;;;;;1.30;0.63;;;15.90;99.90;;;;;;5084035;28;20108;-69
2021/10/24 12:01:23;;;;;;;1.55;0.68;;;15.80;99.90;;;;;;5087129;28;20020;-71
2021/10/24 12:03:57;;;;;;;1.48;0.60;;;15.90;99.90;;;;;;5091356;28;20024;-70
2021/10/24 12:06:50;;;;;;;1.35;0.40;;;15.80;99.90;;;;;;5063905;28;20031;-70
2021/10/24 12:09:39;;;;;;;2.83;0.60;;;15.90;99.90;;;;;;5085952;28;20032;-71
2021/10/24 12:12:14;;;;;;;4.30;0.70;;;15.90;99.90;;;;;;5079403;28;20029;-70
2021/10/24 12:15:04;;;;;;;2.90;0.68;;;15.90;99.90;;;;;;5079730;28;20387;-70
2021/10/24 12:17:39;;;;;;;1.13;0.55;;;15.90;99.90;;;;;;5081496;28;20032;-71
2021/10/24 12:20:21;;;;;;;2.67;0.93;;;15.90;99.90;;;;;;5084614;28;20020;-71
2021/10/24 12:22:51;;;;;;;3.92;0.50;;;16.00;99.90;;;;;;5088336;28;20538;-69
2021/10/24 12:25:36;;;;;;;2.55;0.60;;;16.00;99.90;;;;;;5081475;28;20150;-72
2021/10/24 12:28:20;;;;;;;3.33;0.80;;;15.90;99.90;;;;;;5085979;28;20024;-69
2021/10/24 12:30:56;;;;;;;2.70;1.20;;;15.90;99.90;;;;;;5079602;28;20438;-71
2021/10/24 12:33:31;;;;;;;5.65;0.80;;;15.80;99.90;;;;;;5079614;28;20402;-70
2021/10/24 12:36:00;;;;;;;2.83;0.80;;;15.80;99.90;;;;;;5080704;28;20506;-68
2021/10/24 12:38:51;;;;;;;3.17;0.50;;;15.80;99.90;;;;;;5084021;28;20093;-70
2021/10/24 12:41:41;;;;;;;2.72;0.93;;;15.80;99.90;;;;;;5081346;28;20036;-70
2021/10/24 12:44:24;;;;;;;2.10;1.05;;;15.90;99.90;;;;;;5090846;28;20059;-71
2021/10/24 12:46:53;;;;;;;2.42;0.57;;;15.90;99.90;;;;;;5074557;28;20626;-71
2021/10/24 12:49:30;;;;;;;6.15;0.65;;;16.00;99.90;;;;;;5079538;28;20110;-72
2021/10/24 12:52:13;;;;;;;6.95;1.05;;;16.00;99.90;;;;;;5079905;28;20416;-70
2021/10/24 12:54:43;;;;;;;4.25;0.77;;;16.00;99.90;;;;;;5073219;28;20031;-71
2021/10/24 12:57:11;;;;;;;2.78;0.68;;;15.90;99.90;;;;;;5080175;28;20028;-72
2021/10/24 12:59:39;;;;;;;1.95;0.60;;;15.90;99.90;;;;;;5076629;28;20444;-72
2021/10/24 13:02:12;;;;;;;3.58;1.40;;;15.80;99.90;;;;;;5070941;28;20478;-72
2021/10/24 13:04:40;;;;;;;2.30;0.52;;;15.70;99.90;;;;;;5084378;28;20035;-72
2021/10/24 13:07:07;;;;;;;3.42;0.80;;;15.60;99.90;;;;;;5076174;28;20042;-72
2021/10/24 13:09:35;;;;;;;3.42;0.60;;;15.60;99.90;;;;;;5071707;28;20048;-70